createdAt,value
2022-10-01T00:00:11.031Z,9.18
2022-10-01T00:01:14.079Z,9.14
2022-10-01T00:02:15.476Z,9.16
2022-10-01T00:03:17.113Z,9.10
2022-10-01T00:04:18.488Z,9.14
2022-10-01T00:05:20.035Z,9.12
2022-10-01T00:06:21.336Z,9.09
2022-10-01T00:07:22.680Z,9.07
2022-10-01T00:08:23.980Z,9.09
2022-10-01T00:09:25.768Z,9.09
2022-10-01T00:10:27.109Z,9.13
2022-10-01T00:11:28.427Z,9.13
2022-10-01T00:12:29.724Z,9.07
2022-10-01T00:13:31.020Z,9.06
2022-10-01T00:14:32.296Z,9.05
2022-10-01T00:15:33.900Z,9.05
2022-10-01T00:16:35.278Z,9.02
2022-10-01T00:17:36.753Z,9.00
2022-10-01T00:18:38.998Z,9.00
2022-10-01T00:19:40.277Z,9.00
2022-10-01T00:20:42.342Z,9.04
2022-10-01T00:21:43.683Z,9.00
2022-10-01T00:22:45.191Z,9.02
2022-10-01T00:23:46.579Z,9.00
2022-10-01T00:24:48.553Z,9.03
2022-10-01T00:25:49.838Z,9.02
2022-10-01T00:26:51.141Z,9.03
2022-10-01T00:27:52.527Z,9.00
2022-10-01T00:28:55.560Z,8.95
2022-10-01T00:29:56.868Z,8.95
2022-10-01T00:30:58.217Z,8.93
2022-10-01T00:31:59.559Z,8.95
2022-10-01T00:33:00.895Z,8.95
2022-10-01T00:34:02.624Z,8.96
2022-10-01T00:35:04.373Z,8.95
2022-10-01T00:36:07.172Z,8.93
2022-10-01T00:37:08.515Z,8.96
2022-10-01T00:38:09.791Z,8.94
2022-10-01T00:39:11.755Z,8.96
2022-10-01T00:40:13.055Z,8.92
2022-10-01T00:41:15.644Z,8.91
2022-10-01T00:42:18.588Z,8.95
2022-10-01T00:43:24.210Z,8.92
2022-10-01T00:44:28.305Z,8.99
2022-10-01T00:45:29.928Z,8.95
2022-10-01T00:46:31.228Z,8.94
2022-10-01T00:47:32.553Z,8.99
2022-10-01T00:48:35.900Z,8.96
2022-10-01T00:49:37.578Z,8.98
2022-10-01T00:50:38.896Z,8.98
2022-10-01T00:51:42.440Z,9.01
2022-10-01T00:52:47.683Z,9.00
2022-10-01T00:53:49.078Z,9.00
2022-10-01T00:54:53.119Z,8.99
2022-10-01T00:55:56.713Z,8.99
2022-10-01T00:56:59.178Z,9.00
2022-10-01T00:58:00.860Z,9.01
2022-10-01T00:59:02.393Z,9.02
2022-10-01T01:00:06.029Z,9.03
2022-10-01T01:01:07.366Z,9.05
2022-10-01T01:02:08.733Z,9.05
2022-10-01T01:03:10.631Z,9.06
2022-10-01T01:04:11.911Z,9.10
2022-10-01T01:05:13.539Z,9.08
2022-10-01T01:06:14.861Z,9.06
2022-10-01T01:07:16.354Z,9.08
2022-10-01T01:08:17.856Z,9.08
2022-10-01T01:09:20.027Z,9.06
2022-10-01T01:10:30.424Z,9.05
2022-10-01T01:11:37.901Z,9.03
2022-10-01T01:12:55.115Z,9.07
2022-10-01T01:14:15.172Z,9.07
2022-10-01T01:15:16.432Z,9.09
2022-10-01T01:16:24.069Z,9.09
2022-10-01T01:17:31.845Z,9.13
2022-10-01T01:18:41.203Z,9.10
2022-10-01T01:20:13.019Z,9.08
2022-10-01T01:21:20.122Z,9.05
2022-10-01T01:22:23.581Z,9.06
2022-10-01T01:23:43.541Z,9.06
2022-10-01T01:24:44.824Z,9.11
2022-10-01T01:25:48.772Z,9.11
2022-10-01T01:26:54.750Z,9.13
2022-10-01T01:28:02.312Z,9.14
2022-10-01T01:29:22.109Z,9.15
2022-10-01T01:30:23.387Z,9.14
2022-10-01T01:31:29.894Z,9.16
2022-10-01T01:32:49.844Z,9.17
2022-10-01T01:33:53.392Z,9.19
2022-10-01T01:34:56.660Z,9.20
2022-10-01T01:36:18.199Z,9.18
2022-10-01T01:37:23.401Z,9.22
2022-10-01T01:38:26.820Z,9.22
2022-10-01T01:39:30.936Z,9.24
2022-10-01T01:40:33.607Z,9.25
2022-10-01T01:41:38.213Z,9.31
2022-10-01T01:42:41.794Z,9.32
2022-10-01T01:43:45.142Z,9.36
2022-10-01T01:44:47.397Z,9.36
2022-10-01T01:45:50.933Z,9.40
2022-10-01T01:46:54.320Z,9.42
2022-10-01T01:47:57.069Z,9.43
2022-10-01T01:48:59.989Z,9.50
2022-10-01T01:50:02.341Z,9.53
2022-10-01T01:51:10.643Z,9.51
2022-10-01T01:52:13.299Z,9.55
2022-10-01T01:53:15.032Z,9.55
2022-10-01T01:54:16.937Z,9.56
2022-10-01T01:55:18.638Z,9.57
2022-10-01T01:56:20.004Z,9.56
2022-10-01T01:57:21.533Z,9.59
2022-10-01T01:58:23.440Z,9.64
2022-10-01T01:59:26.118Z,9.63
2022-10-01T02:00:27.407Z,9.62
2022-10-01T02:01:31.744Z,9.61
2022-10-01T02:02:34.989Z,9.68
2022-10-01T02:03:36.405Z,9.69
2022-10-01T02:04:41.556Z,9.65
2022-10-01T02:05:46.243Z,9.62
2022-10-01T02:06:54.158Z,9.62
2022-10-01T02:08:03.513Z,9.59
2022-10-01T02:09:14.189Z,9.58
2022-10-01T02:10:27.599Z,9.59
2022-10-01T02:11:32.567Z,9.60
2022-10-01T02:12:52.583Z,9.61
2022-10-01T02:13:56.762Z,9.64
2022-10-01T02:15:01.107Z,9.69
2022-10-01T02:16:22.301Z,9.67
2022-10-01T02:17:39.011Z,9.76
2022-10-01T02:18:40.268Z,9.73
2022-10-01T02:19:48.522Z,9.74
2022-10-01T02:20:54.434Z,9.75
2022-10-01T02:21:59.239Z,9.77
2022-10-01T02:23:02.773Z,9.78
2022-10-01T02:24:27.421Z,9.80
2022-10-01T02:25:31.172Z,9.84
2022-10-01T02:26:34.091Z,9.85
2022-10-01T02:27:40.959Z,9.89
2022-10-01T02:28:42.476Z,9.96
2022-10-01T02:29:45.099Z,9.94
2022-10-01T02:30:47.106Z,9.91
2022-10-01T02:31:49.364Z,9.90
2022-10-01T02:32:51.498Z,9.90
2022-10-01T02:33:54.205Z,9.90
2022-10-01T02:34:56.333Z,9.91
2022-10-01T02:35:59.812Z,9.98
2022-10-01T02:37:03.879Z,9.94
2022-10-01T02:38:06.126Z,9.91
2022-10-01T02:39:08.397Z,9.90
2022-10-01T02:40:11.739Z,9.89
2022-10-01T02:41:16.370Z,9.89
2022-10-01T02:42:19.758Z,9.91
2022-10-01T02:43:24.300Z,9.90
2022-10-01T02:44:28.640Z,9.94
2022-10-01T02:45:30.877Z,10.04
2022-10-01T02:46:37.304Z,10.02
2022-10-01T02:47:44.603Z,10.06
2022-10-01T02:48:45.906Z,10.05
2022-10-01T02:49:47.869Z,10.08
2022-10-01T02:50:51.645Z,10.05
2022-10-01T02:52:07.975Z,10.02
2022-10-01T02:53:12.678Z,10.02
2022-10-01T02:54:18.800Z,10.04
2022-10-01T02:55:24.144Z,10.04
2022-10-01T02:56:26.876Z,10.04
2022-10-01T02:57:28.504Z,10.09
2022-10-01T02:58:29.915Z,10.11
2022-10-01T02:59:31.284Z,10.10
2022-10-01T03:00:32.591Z,10.10
2022-10-01T03:01:35.117Z,10.08
2022-10-01T03:02:36.729Z,10.05
2022-10-01T03:03:38.118Z,10.03
2022-10-01T03:04:39.452Z,10.05
2022-10-01T03:05:40.748Z,10.05
2022-10-01T03:06:42.068Z,10.06
2022-10-01T03:07:43.390Z,10.09
2022-10-01T03:08:44.711Z,10.05
2022-10-01T03:09:46.102Z,10.03
2022-10-01T03:10:47.448Z,10.00
2022-10-01T03:11:48.745Z,9.95
2022-10-01T03:12:50.016Z,9.96
2022-10-01T03:13:51.335Z,9.95
2022-10-01T03:14:52.824Z,9.95
2022-10-01T03:15:54.153Z,9.94
2022-10-01T03:16:55.463Z,9.93
2022-10-01T03:17:56.761Z,9.93
2022-10-01T03:18:58.037Z,9.90
2022-10-01T03:19:59.367Z,9.89
2022-10-01T03:21:00.767Z,9.90
2022-10-01T03:22:02.288Z,9.89
2022-10-01T03:23:03.584Z,9.88
2022-10-01T03:24:04.928Z,9.88
2022-10-01T03:25:06.384Z,9.87
2022-10-01T03:26:07.753Z,9.83
2022-10-01T03:27:09.847Z,9.84
2022-10-01T03:28:11.207Z,9.84
2022-10-01T03:29:12.556Z,9.87
2022-10-01T03:30:13.904Z,9.87
2022-10-01T03:31:15.247Z,9.87
2022-10-01T03:32:16.918Z,9.89
2022-10-01T03:33:18.226Z,9.90
2022-10-01T03:34:19.712Z,9.88
2022-10-01T03:35:21.049Z,9.88
2022-10-01T03:36:22.857Z,9.85
2022-10-01T03:37:24.203Z,9.86
2022-10-01T03:38:25.543Z,9.87
2022-10-01T03:39:26.830Z,9.85
2022-10-01T03:40:28.257Z,9.84
2022-10-01T03:41:29.551Z,9.81
2022-10-01T03:42:30.870Z,9.81
2022-10-01T03:43:32.168Z,9.78
2022-10-01T03:44:33.474Z,9.77
2022-10-01T03:45:34.832Z,9.81
2022-10-01T03:46:36.394Z,9.81
2022-10-01T03:47:37.714Z,9.80
2022-10-01T03:48:39.024Z,9.81
2022-10-01T03:49:40.327Z,9.83
2022-10-01T03:50:41.641Z,9.86
2022-10-01T03:51:42.951Z,9.84
2022-10-01T03:52:44.272Z,9.84
2022-10-01T03:53:45.552Z,9.88
2022-10-01T03:54:46.875Z,9.89
2022-10-01T03:55:48.270Z,9.87
2022-10-01T03:56:49.564Z,9.90
2022-10-01T03:57:50.965Z,9.88
2022-10-01T03:58:52.265Z,9.87
2022-10-01T03:59:53.583Z,9.86
2022-10-01T04:00:54.908Z,9.83
2022-10-01T04:01:56.357Z,9.87
2022-10-01T04:02:57.784Z,9.90
2022-10-01T04:03:59.116Z,9.89
2022-10-01T04:05:00.453Z,9.86
2022-10-01T04:06:01.763Z,9.88
2022-10-01T04:07:03.075Z,9.90
2022-10-01T04:08:04.421Z,9.89
2022-10-01T04:09:05.757Z,9.88
2022-10-01T04:10:07.436Z,9.91
2022-10-01T04:11:08.760Z,9.95
2022-10-01T04:12:10.040Z,9.91
2022-10-01T04:13:11.417Z,9.90
2022-10-01T04:14:12.696Z,9.90
2022-10-01T04:15:14.006Z,9.90
2022-10-01T04:16:15.365Z,9.91
2022-10-01T04:17:16.719Z,9.96
2022-10-01T04:18:18.004Z,10.00
2022-10-01T04:19:19.544Z,9.96
2022-10-01T04:20:20.884Z,10.00
2022-10-01T04:21:22.208Z,10.03
2022-10-01T04:22:23.495Z,10.01
2022-10-01T04:23:24.913Z,9.98
2022-10-01T04:24:26.187Z,10.00
2022-10-01T04:25:28.067Z,10.01
2022-10-01T04:26:29.383Z,10.00
2022-10-01T04:27:30.676Z,9.96
2022-10-01T04:28:32.285Z,9.95
2022-10-01T04:29:38.026Z,9.96
2022-10-01T04:30:42.177Z,9.93
2022-10-01T04:31:43.501Z,9.96
2022-10-01T04:32:44.843Z,9.99
2022-10-01T04:33:46.132Z,10.01
2022-10-01T04:34:47.424Z,10.12
2022-10-01T04:35:48.715Z,10.05
2022-10-01T04:36:49.995Z,10.01
2022-10-01T04:37:57.454Z,9.97
2022-10-01T04:39:02.634Z,9.97
2022-10-01T04:40:04.787Z,9.95
2022-10-01T04:41:06.493Z,10.00
2022-10-01T04:42:07.812Z,9.96
2022-10-01T04:43:09.324Z,9.95
2022-10-01T04:44:10.592Z,9.96
2022-10-01T04:45:11.999Z,9.99
2022-10-01T04:46:13.688Z,10.01
2022-10-01T04:47:15.020Z,10.00
2022-10-01T04:48:16.311Z,9.98
2022-10-01T04:49:17.605Z,9.96
2022-10-01T04:50:19.336Z,9.97
2022-10-01T04:51:24.049Z,9.98
2022-10-01T04:52:25.327Z,9.98
2022-10-01T04:53:26.641Z,9.96
2022-10-01T04:54:27.987Z,10.02
2022-10-01T04:55:29.260Z,10.00
2022-10-01T04:56:30.569Z,10.00
2022-10-01T04:57:31.835Z,10.01
2022-10-01T04:58:33.111Z,10.01
2022-10-01T04:59:34.422Z,10.07
2022-10-01T05:00:35.955Z,10.06
2022-10-01T05:01:37.881Z,10.06
2022-10-01T05:02:39.687Z,10.08
2022-10-01T05:03:40.980Z,10.12
2022-10-01T05:04:42.252Z,10.13
2022-10-01T05:05:43.571Z,10.13
2022-10-01T05:06:44.845Z,10.13
2022-10-01T05:07:46.503Z,10.11
2022-10-01T05:08:47.795Z,10.12
2022-10-01T05:09:49.079Z,10.14
2022-10-01T05:10:50.381Z,10.15
2022-10-01T05:11:51.667Z,10.15
2022-10-01T05:12:53.360Z,10.20
2022-10-01T05:13:54.689Z,10.24
2022-10-01T05:14:56.205Z,10.25
2022-10-01T05:15:58.035Z,10.29
2022-10-01T05:16:59.400Z,10.28
2022-10-01T05:18:00.668Z,10.28
2022-10-01T05:19:01.956Z,10.31
2022-10-01T05:20:04.712Z,10.29
2022-10-01T05:21:07.127Z,10.29
2022-10-01T05:22:08.430Z,10.38
2022-10-01T05:23:09.707Z,10.39
2022-10-01T05:24:10.996Z,10.49
2022-10-01T05:25:12.298Z,10.47
2022-10-01T05:26:13.744Z,10.46
2022-10-01T05:27:15.086Z,10.45
2022-10-01T05:28:21.347Z,10.44
2022-10-01T05:29:23.844Z,10.42
2022-10-01T05:30:25.151Z,10.40
2022-10-01T05:31:26.608Z,10.43
2022-10-01T05:32:27.924Z,10.43
2022-10-01T05:33:30.475Z,10.45
2022-10-01T05:34:31.758Z,10.40
2022-10-01T05:35:33.059Z,10.44
2022-10-01T05:36:34.351Z,10.42
2022-10-01T05:37:38.411Z,10.40
2022-10-01T05:38:39.700Z,10.42
2022-10-01T05:39:40.988Z,10.44
2022-10-01T05:40:44.968Z,10.43
2022-10-01T05:41:46.284Z,10.42
2022-10-01T05:42:47.709Z,10.42
2022-10-01T05:43:49.044Z,10.42
2022-10-01T05:44:50.332Z,10.38
2022-10-01T05:45:51.689Z,10.38
2022-10-01T05:46:53.234Z,10.39
2022-10-01T05:47:57.509Z,10.38
2022-10-01T05:48:59.051Z,10.39
2022-10-01T05:50:00.341Z,10.40
2022-10-01T05:51:01.608Z,10.37
2022-10-01T05:52:02.919Z,10.39
2022-10-01T05:53:04.216Z,10.39
2022-10-01T05:54:05.488Z,10.41
2022-10-01T05:55:06.947Z,10.43
2022-10-01T05:56:08.539Z,10.44
2022-10-01T05:57:10.176Z,10.45
2022-10-01T05:58:12.252Z,10.48
2022-10-01T05:59:13.590Z,10.47
2022-10-01T06:00:14.883Z,10.44
2022-10-01T06:01:16.172Z,10.43
2022-10-01T06:02:17.573Z,10.41
2022-10-01T06:03:18.998Z,10.44
2022-10-01T06:04:20.365Z,10.40
2022-10-01T06:05:22.081Z,10.42
2022-10-01T06:06:26.934Z,10.43
2022-10-01T06:07:30.847Z,10.42
2022-10-01T06:08:36.043Z,10.45
2022-10-01T06:09:37.377Z,10.44
2022-10-01T06:10:38.664Z,10.45
2022-10-01T06:11:39.989Z,10.45
2022-10-01T06:12:41.331Z,10.46
2022-10-01T06:13:42.863Z,10.45
2022-10-01T06:14:44.209Z,10.45
2022-10-01T06:15:45.755Z,10.43
2022-10-01T06:16:47.086Z,10.43
2022-10-01T06:17:48.446Z,10.40
2022-10-01T06:18:49.720Z,10.44
2022-10-01T06:19:51.027Z,10.42
2022-10-01T06:20:52.314Z,10.40
2022-10-01T06:21:53.582Z,10.38
2022-10-01T06:22:55.928Z,10.36
2022-10-01T06:23:57.971Z,10.34
2022-10-01T06:24:59.297Z,10.31
2022-10-01T06:26:01.617Z,10.30
2022-10-01T06:27:02.996Z,10.27
2022-10-01T06:28:06.039Z,10.26
2022-10-01T06:29:07.380Z,10.25
2022-10-01T06:30:08.976Z,10.24
2022-10-01T06:31:10.651Z,10.25
2022-10-01T06:32:11.959Z,10.21
2022-10-01T06:33:14.528Z,10.23
2022-10-01T06:34:15.888Z,10.21
2022-10-01T06:35:17.184Z,10.21
2022-10-01T06:36:18.595Z,10.23
2022-10-01T06:37:19.890Z,10.23
2022-10-01T06:38:22.236Z,10.22
2022-10-01T06:39:23.555Z,10.26
2022-10-01T06:40:25.031Z,10.23
2022-10-01T06:41:26.315Z,10.25
2022-10-01T06:42:27.597Z,10.30
2022-10-01T06:43:29.797Z,10.30
2022-10-01T06:44:31.107Z,10.29
2022-10-01T06:45:32.443Z,10.27
2022-10-01T06:46:33.769Z,10.28
2022-10-01T06:47:35.035Z,10.27
2022-10-01T06:48:36.397Z,10.28
2022-10-01T06:49:37.795Z,10.26
2022-10-01T06:50:39.557Z,10.27
2022-10-01T06:51:40.854Z,10.27
2022-10-01T06:52:42.126Z,10.28
2022-10-01T06:53:43.439Z,10.31
2022-10-01T06:54:44.804Z,10.33
2022-10-01T06:55:46.105Z,10.31
2022-10-01T06:56:47.392Z,10.33
2022-10-01T06:57:53.954Z,10.34
2022-10-01T06:58:55.271Z,10.36
2022-10-01T06:59:56.588Z,10.34
2022-10-01T07:01:02.029Z,10.32
2022-10-01T07:02:04.094Z,10.27
2022-10-01T07:03:06.425Z,10.27
2022-10-01T07:04:07.733Z,10.26
2022-10-01T07:05:09.041Z,10.27
2022-10-01T07:06:10.329Z,10.27
2022-10-01T07:07:11.621Z,10.26
2022-10-01T07:08:13.344Z,10.27
2022-10-01T07:09:14.616Z,10.32
2022-10-01T07:10:16.940Z,10.29
2022-10-01T07:11:18.228Z,10.32
2022-10-01T07:12:19.566Z,10.29
2022-10-01T07:13:20.879Z,10.26
2022-10-01T07:14:22.163Z,10.25
2022-10-01T07:15:23.457Z,10.26
2022-10-01T07:16:24.797Z,10.26
2022-10-01T07:17:26.260Z,10.27
2022-10-01T07:18:27.528Z,10.33
2022-10-01T07:19:28.820Z,10.31
2022-10-01T07:20:30.149Z,10.31
2022-10-01T07:21:31.864Z,10.32
2022-10-01T07:22:33.492Z,10.32
2022-10-01T07:23:34.799Z,10.33
2022-10-01T07:24:36.119Z,10.34
2022-10-01T07:25:38.050Z,10.31
2022-10-01T07:26:39.459Z,10.29
2022-10-01T07:27:40.766Z,10.29
2022-10-01T07:28:42.076Z,10.27
2022-10-01T07:29:43.464Z,10.26
2022-10-01T07:30:56.981Z,10.31
2022-10-01T07:31:58.890Z,10.28
2022-10-01T07:33:00.216Z,10.27
2022-10-01T07:34:01.568Z,10.28
2022-10-01T07:35:02.950Z,10.27
2022-10-01T07:36:05.435Z,10.32
2022-10-01T07:37:07.180Z,10.36
2022-10-01T07:38:08.559Z,10.35
2022-10-01T07:39:09.992Z,10.33
2022-10-01T07:40:11.284Z,10.32
2022-10-01T07:41:12.604Z,10.29
2022-10-01T07:42:14.103Z,10.26
2022-10-01T07:43:15.393Z,10.23
2022-10-01T07:44:17.157Z,10.26
2022-10-01T07:45:18.422Z,10.26
2022-10-01T07:46:19.788Z,10.29
2022-10-01T07:47:21.144Z,10.30
2022-10-01T07:48:22.456Z,10.33
2022-10-01T07:49:24.128Z,10.39
2022-10-01T07:50:25.800Z,10.35
2022-10-01T07:51:27.100Z,10.35
2022-10-01T07:52:28.417Z,10.35
2022-10-01T07:53:29.709Z,10.36
2022-10-01T07:54:30.996Z,10.33
2022-10-01T07:55:32.312Z,10.34
2022-10-01T07:56:33.620Z,10.34
2022-10-01T07:57:34.895Z,10.33
2022-10-01T07:58:36.191Z,10.34
2022-10-01T07:59:37.487Z,10.36
2022-10-01T08:00:38.956Z,10.38
2022-10-01T08:01:40.333Z,10.39
2022-10-01T08:02:46.191Z,10.40
2022-10-01T08:03:48.087Z,10.43
2022-10-01T08:04:49.357Z,10.43
2022-10-01T08:05:50.956Z,10.40
2022-10-01T08:06:52.745Z,10.42
2022-10-01T08:07:57.484Z,10.44
2022-10-01T08:08:58.803Z,10.45
2022-10-01T08:10:00.112Z,10.45
2022-10-01T08:11:04.227Z,10.44
2022-10-01T08:12:05.539Z,10.53
2022-10-01T08:13:08.029Z,10.54
2022-10-01T08:14:09.358Z,10.55
2022-10-01T08:15:11.843Z,10.56
2022-10-01T08:16:13.953Z,10.56
2022-10-01T08:17:15.251Z,10.56
2022-10-01T08:18:16.609Z,10.55
2022-10-01T08:19:17.938Z,10.56
2022-10-01T08:20:19.330Z,10.56
2022-10-01T08:21:20.662Z,10.57
2022-10-01T08:22:21.930Z,10.57
2022-10-01T08:23:23.219Z,10.60
2022-10-01T08:24:24.547Z,10.60
2022-10-01T08:25:25.861Z,10.61
2022-10-01T08:26:27.137Z,10.62
2022-10-01T08:27:28.533Z,10.65
2022-10-01T08:28:29.897Z,10.63
2022-10-01T08:29:31.292Z,10.69
2022-10-01T08:30:32.916Z,10.71
2022-10-01T08:31:34.561Z,10.70
2022-10-01T08:32:36.059Z,10.68
2022-10-01T08:33:38.131Z,10.71
2022-10-01T08:34:39.463Z,10.70
2022-10-01T08:35:41.089Z,10.72
2022-10-01T08:36:42.433Z,10.72
2022-10-01T08:37:43.710Z,10.73
2022-10-01T08:38:45.983Z,10.73
2022-10-01T08:39:47.257Z,10.76
2022-10-01T08:40:49.844Z,10.74
2022-10-01T08:42:03.414Z,10.75
2022-10-01T08:43:05.896Z,10.75
2022-10-01T08:44:07.305Z,10.76
2022-10-01T08:45:13.331Z,10.75
2022-10-01T08:46:16.139Z,10.72
2022-10-01T08:47:31.235Z,10.76
2022-10-01T08:48:53.506Z,10.79
2022-10-01T08:50:00.493Z,10.82
2022-10-01T08:51:05.532Z,10.84
2022-10-01T08:52:06.791Z,10.85
2022-10-01T08:53:12.438Z,10.87
2022-10-01T08:54:13.759Z,10.87
2022-10-01T08:55:19.427Z,10.89
2022-10-01T08:56:25.707Z,10.88
2022-10-01T08:57:31.871Z,10.87
2022-10-01T08:58:37.742Z,10.88
2022-10-01T08:59:40.657Z,10.91
2022-10-01T09:00:44.666Z,10.92
2022-10-01T09:01:46.037Z,10.94
2022-10-01T09:02:47.542Z,10.96
2022-10-01T09:03:49.441Z,10.99
2022-10-01T09:04:53.571Z,11.03
2022-10-01T09:06:15.516Z,11.02
2022-10-01T09:07:28.393Z,11.05
2022-10-01T09:08:29.749Z,11.06
2022-10-01T09:09:49.884Z,11.06
2022-10-01T09:10:59.882Z,11.04
2022-10-01T09:12:21.524Z,11.07
2022-10-01T09:13:32.032Z,11.09
2022-10-01T09:14:49.199Z,11.09
2022-10-01T09:15:53.507Z,11.14
2022-10-01T09:16:54.877Z,11.17
2022-10-01T09:18:15.039Z,11.20
2022-10-01T09:19:19.010Z,11.26
2022-10-01T09:20:29.015Z,11.30
2022-10-01T09:21:48.720Z,11.30
2022-10-01T09:22:53.154Z,11.34
2022-10-01T09:24:04.804Z,11.35
2022-10-01T09:25:08.701Z,11.39
2022-10-01T09:26:12.062Z,11.42
2022-10-01T09:27:13.364Z,11.47
2022-10-01T09:28:16.614Z,11.52
2022-10-01T09:29:24.780Z,11.52
2022-10-01T09:30:27.374Z,11.54
2022-10-01T09:31:36.208Z,11.57
2022-10-01T09:32:45.936Z,11.58
2022-10-01T09:34:06.209Z,11.56
2022-10-01T09:35:15.406Z,11.58
2022-10-01T09:36:38.167Z,11.60
2022-10-01T09:37:44.263Z,11.62
2022-10-01T09:38:57.530Z,11.63
2022-10-01T09:40:11.178Z,11.61
2022-10-01T09:41:12.527Z,11.60
2022-10-01T09:42:13.881Z,11.59
2022-10-01T09:43:15.366Z,11.62
2022-10-01T09:44:19.045Z,11.62
2022-10-01T09:45:21.928Z,11.62
2022-10-01T09:46:24.012Z,11.65
2022-10-01T09:47:25.372Z,11.65
2022-10-01T09:48:26.690Z,11.64
2022-10-01T09:49:30.492Z,11.64
2022-10-01T09:50:38.309Z,11.63
2022-10-01T09:51:44.711Z,11.66
2022-10-01T09:52:47.919Z,11.68
2022-10-01T09:53:58.420Z,11.71
2022-10-01T09:55:18.064Z,11.72
2022-10-01T09:56:24.103Z,11.71
2022-10-01T09:57:33.060Z,11.71
2022-10-01T09:58:35.908Z,11.69
2022-10-01T09:59:44.203Z,11.70
2022-10-01T10:00:45.543Z,11.68
2022-10-01T10:01:49.721Z,11.65
2022-10-01T10:02:51.929Z,11.69
2022-10-01T10:03:54.429Z,11.70
2022-10-01T10:05:03.216Z,11.70
2022-10-01T10:06:05.486Z,11.66
2022-10-01T10:07:06.875Z,11.67
2022-10-01T10:08:16.052Z,11.69
2022-10-01T10:09:18.918Z,11.70
2022-10-01T10:10:26.187Z,11.73
2022-10-01T10:11:29.768Z,11.73
2022-10-01T10:12:31.106Z,11.71
2022-10-01T10:13:33.848Z,11.71
2022-10-01T10:14:37.030Z,11.71
2022-10-01T10:15:43.075Z,11.71
2022-10-01T10:16:45.270Z,11.80
2022-10-01T10:17:48.254Z,11.79
2022-10-01T10:18:49.646Z,11.76
2022-10-01T10:19:51.995Z,11.76
2022-10-01T10:20:54.339Z,11.75
2022-10-01T10:21:56.739Z,11.73
2022-10-01T10:23:18.245Z,11.72
2022-10-01T10:24:25.701Z,11.75
2022-10-01T10:25:27.012Z,11.79
2022-10-01T10:26:30.547Z,11.74
2022-10-01T10:27:32.116Z,11.72
2022-10-01T10:28:44.402Z,11.75
2022-10-01T10:29:45.848Z,11.79
2022-10-01T10:30:47.890Z,11.81
2022-10-01T10:31:49.251Z,11.81
2022-10-01T10:32:51.249Z,11.84
2022-10-01T10:33:54.489Z,11.94
2022-10-01T10:35:02.741Z,11.97
2022-10-01T10:36:06.031Z,11.96
2022-10-01T10:37:17.926Z,11.96
2022-10-01T10:38:19.396Z,11.97
2022-10-01T10:39:25.596Z,11.98
2022-10-01T10:40:47.163Z,12.05
2022-10-01T10:41:50.257Z,12.13
2022-10-01T10:42:52.472Z,12.16
2022-10-01T10:43:55.863Z,12.19
2022-10-01T10:45:00.423Z,12.20
2022-10-01T10:46:01.955Z,12.23
2022-10-01T10:47:05.476Z,12.27
2022-10-01T10:48:11.903Z,12.29
2022-10-01T10:49:20.026Z,12.32
2022-10-01T10:50:32.088Z,12.39
2022-10-01T10:51:46.688Z,12.42
2022-10-01T10:52:48.016Z,12.48
2022-10-01T10:53:49.376Z,12.57
2022-10-01T10:54:50.939Z,12.57
2022-10-01T10:56:02.691Z,12.58
2022-10-01T10:57:19.496Z,12.59
2022-10-01T10:58:24.661Z,12.58
2022-10-01T10:59:26.163Z,12.55
2022-10-01T11:00:27.553Z,12.54
2022-10-01T11:01:29.337Z,12.52
2022-10-01T11:02:32.014Z,12.53
2022-10-01T11:03:36.194Z,12.51
2022-10-01T11:04:40.237Z,12.61
2022-10-01T11:05:42.324Z,12.59
2022-10-01T11:06:53.335Z,12.58
2022-10-01T11:07:56.906Z,12.58
2022-10-01T11:08:59.835Z,12.62
2022-10-01T11:10:01.158Z,12.62
2022-10-01T11:11:08.484Z,12.69
2022-10-01T11:12:12.662Z,12.73
2022-10-01T11:13:26.650Z,12.79
2022-10-01T11:14:36.805Z,12.83
2022-10-01T11:15:38.105Z,12.88
2022-10-01T11:16:48.437Z,12.88
2022-10-01T11:18:00.868Z,12.93
2022-10-01T11:19:08.267Z,12.95
2022-10-01T11:20:24.982Z,12.94
2022-10-01T11:21:26.252Z,12.94
2022-10-01T11:22:39.809Z,12.94
2022-10-01T11:23:44.159Z,13.05
2022-10-01T11:24:51.353Z,13.01
2022-10-01T11:26:01.767Z,12.95
2022-10-01T11:27:20.614Z,12.91
2022-10-01T11:28:24.804Z,12.92
2022-10-01T11:29:33.293Z,12.91
2022-10-01T11:30:34.624Z,12.87
2022-10-01T11:32:14.237Z,12.85
2022-10-01T11:33:27.268Z,12.79
2022-10-01T11:34:46.876Z,12.79
2022-10-01T11:35:48.161Z,12.79
2022-10-01T11:36:54.635Z,12.81
2022-10-01T11:38:01.228Z,12.84
2022-10-01T11:39:09.868Z,12.77
2022-10-01T11:40:17.153Z,12.75
2022-10-01T11:41:24.729Z,12.77
2022-10-01T11:42:30.753Z,12.76
2022-10-01T11:43:51.346Z,12.77
2022-10-01T11:45:00.775Z,12.80
2022-10-01T11:46:12.050Z,12.76
2022-10-01T11:47:16.429Z,12.78
2022-10-01T11:48:24.588Z,12.82
2022-10-01T11:49:37.827Z,12.79
2022-10-01T11:50:44.003Z,12.82
2022-10-01T11:52:17.552Z,12.84
2022-10-01T11:53:18.850Z,12.83
2022-10-01T11:54:24.229Z,12.82
2022-10-01T11:55:45.787Z,12.80
2022-10-01T11:56:54.200Z,12.79
2022-10-01T11:57:57.964Z,12.76
2022-10-01T11:59:19.511Z,12.75
2022-10-01T12:00:25.283Z,12.79
2022-10-01T12:01:46.909Z,12.79
2022-10-01T12:02:52.819Z,12.78
2022-10-01T12:03:54.119Z,12.82
2022-10-01T12:05:01.363Z,12.84
2022-10-01T12:06:05.188Z,12.81
2022-10-01T12:07:21.833Z,12.79
2022-10-01T12:08:29.539Z,12.79
2022-10-01T12:09:51.104Z,12.79
2022-10-01T12:11:21.533Z,12.83
2022-10-01T12:12:26.561Z,12.84
2022-10-01T12:13:32.911Z,12.84
2022-10-01T12:14:50.170Z,12.85
2022-10-01T12:16:10.073Z,12.89
2022-10-01T12:17:17.176Z,12.95
2022-10-01T12:18:32.058Z,13.00
2022-10-01T12:19:36.268Z,13.04
2022-10-01T12:20:46.114Z,13.07
2022-10-01T12:22:07.659Z,13.08
2022-10-01T12:23:13.481Z,13.07
2022-10-01T12:24:35.066Z,13.13
2022-10-01T12:25:42.313Z,13.17
2022-10-01T12:26:46.617Z,13.19
2022-10-01T12:27:56.601Z,13.25
2022-10-01T12:29:04.971Z,13.30
2022-10-01T12:30:11.968Z,13.35
2022-10-01T12:31:17.341Z,13.34
2022-10-01T12:32:37.247Z,13.37
2022-10-01T12:33:38.528Z,13.42
2022-10-01T12:34:39.805Z,13.45
2022-10-01T12:35:44.064Z,13.52
2022-10-01T12:36:45.313Z,13.52
2022-10-01T12:38:01.773Z,13.53
2022-10-01T12:39:03.115Z,13.53
2022-10-01T12:40:10.331Z,13.57
2022-10-01T12:41:11.664Z,13.59
2022-10-01T12:42:12.923Z,13.55
2022-10-01T12:43:32.191Z,13.61
2022-10-01T12:44:39.146Z,13.60
2022-10-01T12:45:55.688Z,13.63
2022-10-01T12:46:56.983Z,13.62
2022-10-01T12:48:03.985Z,13.63
2022-10-01T12:49:30.341Z,13.64
2022-10-01T12:50:50.457Z,13.68
2022-10-01T12:52:07.917Z,13.72
2022-10-01T12:53:23.123Z,13.74
2022-10-01T12:54:36.793Z,13.76
2022-10-01T12:55:48.784Z,13.79
2022-10-01T12:56:56.417Z,13.78
2022-10-01T12:58:27.184Z,13.75
2022-10-01T12:59:50.141Z,13.80
2022-10-01T13:00:58.624Z,13.83
2022-10-01T13:02:18.626Z,13.82
2022-10-01T13:03:37.474Z,13.84
2022-10-01T13:04:41.763Z,13.85
2022-10-01T13:05:55.284Z,13.88
2022-10-01T13:07:15.446Z,13.93
2022-10-01T13:08:16.751Z,13.94
2022-10-01T13:09:38.285Z,13.96
2022-10-01T13:10:58.483Z,14.01
2022-10-01T13:12:02.525Z,14.03
2022-10-01T13:13:24.090Z,14.02
2022-10-01T13:14:25.564Z,14.00
2022-10-01T13:15:29.791Z,14.01
2022-10-01T13:16:35.248Z,14.05
2022-10-01T13:17:43.264Z,14.03
2022-10-01T13:19:03.578Z,14.03
2022-10-01T13:20:07.864Z,14.05
2022-10-01T13:21:29.488Z,14.08
2022-10-01T13:22:38.325Z,14.14
2022-10-01T13:23:42.351Z,14.14
2022-10-01T13:24:43.720Z,14.15
2022-10-01T13:25:57.153Z,14.19
2022-10-01T13:27:00.935Z,14.26
2022-10-01T13:28:02.263Z,14.36
2022-10-01T13:29:06.284Z,14.41
2022-10-01T13:30:19.599Z,14.48
2022-10-01T13:31:31.379Z,14.54
2022-10-01T13:32:48.511Z,14.64
2022-10-01T13:33:54.143Z,14.79
2022-10-01T13:34:56.309Z,14.85
2022-10-01T13:35:59.044Z,14.91
2022-10-01T13:37:16.916Z,14.94
2022-10-01T13:38:28.931Z,15.00
2022-10-01T13:39:36.568Z,15.03
2022-10-01T13:40:40.549Z,15.10
2022-10-01T13:41:42.064Z,15.14
2022-10-01T13:42:45.361Z,15.23
2022-10-01T13:43:52.149Z,15.30
2022-10-01T13:44:53.408Z,15.38
2022-10-01T13:45:55.237Z,15.43
2022-10-01T13:47:00.098Z,15.50
2022-10-01T13:48:10.476Z,15.54
2022-10-01T13:49:30.730Z,15.60
2022-10-01T13:50:32.272Z,15.64
2022-10-01T13:51:37.433Z,15.67
2022-10-01T13:52:38.806Z,15.76
2022-10-01T13:53:43.209Z,15.75
2022-10-01T13:54:47.224Z,15.72
2022-10-01T13:55:48.896Z,15.68
2022-10-01T13:56:50.299Z,15.70
2022-10-01T13:58:01.031Z,15.69
2022-10-01T13:59:22.321Z,15.68
2022-10-01T14:00:23.778Z,15.69